sensor_id;sensor_type;location;lat;lon;timestamp;P1;durP1;ratioP1;P2;durP2;ratioP2
61905;SDS011;47863;55.766;37.672;2024-03-17T00:02:23;7.10;;;3.83;;
61905;SDS011;47863;55.766;37.672;2024-03-17T00:04:49;11.10;;;4.13;;
61905;SDS011;47863;55.766;37.672;2024-03-17T00:07:14;9.13;;;3.95;;
61905;SDS011;47863;55.766;37.672;2024-03-17T00:09:41;11.00;;;5.40;;
61905;SDS011;47863;55.766;37.672;2024-03-17T00:12:07;12.00;;;4.07;;
61905;SDS011;47863;55.766;37.672;2024-03-17T00:14:33;8.65;;;3.75;;
61905;SDS011;47863;55.766;37.672;2024-03-17T00:17:04;12.77;;;4.70;;
61905;SDS011;47863;55.766;37.672;2024-03-17T00:19:29;9.18;;;4.18;;
61905;SDS011;47863;55.766;37.672;2024-03-17T00:21:55;11.50;;;5.30;;
61905;SDS011;47863;55.766;37.672;2024-03-17T00:24:20;6.13;;;2.97;;
61905;SDS011;47863;55.766;37.672;2024-03-17T00:26:46;8.98;;;3.42;;
61905;SDS011;47863;55.766;37.672;2024-03-17T00:29:14;6.72;;;3.83;;
61905;SDS011;47863;55.766;37.672;2024-03-17T00:31:40;10.63;;;3.65;;
61905;SDS011;47863;55.766;37.672;2024-03-17T00:34:06;5.97;;;3.10;;
61905;SDS011;47863;55.766;37.672;2024-03-17T00:36:32;11.15;;;3.90;;
61905;SDS011;47863;55.766;37.672;2024-03-17T00:38:58;13.88;;;5.38;;
61905;SDS011;47863;55.766;37.672;2024-03-17T00:41:23;8.07;;;3.58;;
61905;SDS011;47863;55.766;37.672;2024-03-17T00:43:49;16.23;;;5.78;;
61905;SDS011;47863;55.766;37.672;2024-03-17T00:46:17;8.30;;;3.72;;
61905;SDS011;47863;55.766;37.672;2024-03-17T00:48:46;8.70;;;4.10;;
61905;SDS011;47863;55.766;37.672;2024-03-17T00:51:13;9.00;;;3.85;;
61905;SDS011;47863;55.766;37.672;2024-03-17T00:53:38;7.50;;;3.88;;
61905;SDS011;47863;55.766;37.672;2024-03-17T00:56:04;8.63;;;4.55;;
61905;SDS011;47863;55.766;37.672;2024-03-17T00:58:30;9.07;;;3.63;;
61905;SDS011;47863;55.766;37.672;2024-03-17T01:00:55;8.30;;;4.07;;
61905;SDS011;47863;55.766;37.672;2024-03-17T01:03:21;5.22;;;3.05;;
61905;SDS011;47863;55.766;37.672;2024-03-17T01:05:47;6.13;;;2.80;;
61905;SDS011;47863;55.766;37.672;2024-03-17T01:08:14;13.50;;;4.78;;
61905;SDS011;47863;55.766;37.672;2024-03-17T01:10:40;7.90;;;3.47;;
61905;SDS011;47863;55.766;37.672;2024-03-17T01:13:06;10.30;;;4.50;;
61905;SDS011;47863;55.766;37.672;2024-03-17T01:15:32;14.00;;;6.22;;
61905;SDS011;47863;55.766;37.672;2024-03-17T01:17:58;9.15;;;4.40;;
61905;SDS011;47863;55.766;37.672;2024-03-17T01:20:25;10.18;;;4.22;;
61905;SDS011;47863;55.766;37.672;2024-03-17T01:22:51;11.82;;;4.80;;
61905;SDS011;47863;55.766;37.672;2024-03-17T01:25:17;9.45;;;3.72;;
61905;SDS011;47863;55.766;37.672;2024-03-17T01:27:43;13.20;;;5.05;;
61905;SDS011;47863;55.766;37.672;2024-03-17T01:30:10;10.30;;;4.63;;
61905;SDS011;47863;55.766;37.672;2024-03-17T01:32:36;8.65;;;3.78;;
61905;SDS011;47863;55.766;37.672;2024-03-17T01:35:01;14.68;;;5.05;;
61905;SDS011;47863;55.766;37.672;2024-03-17T01:37:29;9.13;;;3.53;;
61905;SDS011;47863;55.766;37.672;2024-03-17T01:39:58;15.30;;;4.93;;
61905;SDS011;47863;55.766;37.672;2024-03-17T01:42:24;16.05;;;5.68;;
61905;SDS011;47863;55.766;37.672;2024-03-17T01:44:49;10.60;;;5.05;;
61905;SDS011;47863;55.766;37.672;2024-03-17T01:47:18;8.85;;;4.72;;
61905;SDS011;47863;55.766;37.672;2024-03-17T01:49:45;21.50;;;6.47;;
61905;SDS011;47863;55.766;37.672;2024-03-17T01:52:13;9.95;;;4.20;;
61905;SDS011;47863;55.766;37.672;2024-03-17T01:54:42;7.85;;;4.00;;
61905;SDS011;47863;55.766;37.672;2024-03-17T01:57:09;11.75;;;5.15;;
61905;SDS011;47863;55.766;37.672;2024-03-17T01:59:36;6.43;;;3.50;;
61905;SDS011;47863;55.766;37.672;2024-03-17T02:02:02;8.05;;;3.53;;
61905;SDS011;47863;55.766;37.672;2024-03-17T02:04:29;7.93;;;4.07;;
61905;SDS011;47863;55.766;37.672;2024-03-17T02:06:55;8.02;;;4.25;;
61905;SDS011;47863;55.766;37.672;2024-03-17T02:09:20;10.50;;;4.95;;
61905;SDS011;47863;55.766;37.672;2024-03-17T02:11:47;15.40;;;4.45;;
61905;SDS011;47863;55.766;37.672;2024-03-17T02:14:14;14.80;;;5.72;;
61905;SDS011;47863;55.766;37.672;2024-03-17T02:16:42;20.45;;;7.10;;
61905;SDS011;47863;55.766;37.672;2024-03-17T02:19:08;9.35;;;4.53;;
61905;SDS011;47863;55.766;37.672;2024-03-17T02:21:34;19.00;;;5.97;;
61905;SDS011;47863;55.766;37.672;2024-03-17T02:24:00;8.73;;;4.20;;
61905;SDS011;47863;55.766;37.672;2024-03-17T02:26:26;20.73;;;6.78;;
61905;SDS011;47863;55.766;37.672;2024-03-17T02:28:53;8.38;;;4.00;;
61905;SDS011;47863;55.766;37.672;2024-03-17T02:31:19;11.15;;;5.05;;
61905;SDS011;47863;55.766;37.672;2024-03-17T02:33:45;9.50;;;3.97;;
61905;SDS011;47863;55.766;37.672;2024-03-17T02:36:11;8.70;;;4.30;;
61905;SDS011;47863;55.766;37.672;2024-03-17T02:38:38;6.63;;;3.45;;
61905;SDS011;47863;55.766;37.672;2024-03-17T02:41:23;17.25;;;6.60;;
61905;SDS011;47863;55.766;37.672;2024-03-17T02:43:49;12.90;;;5.55;;
61905;SDS011;47863;55.766;37.672;2024-03-17T02:46:16;11.90;;;3.92;;
61905;SDS011;47863;55.766;37.672;2024-03-17T02:48:44;10.23;;;5.05;;
61905;SDS011;47863;55.766;37.672;2024-03-17T02:51:13;12.30;;;4.95;;
61905;SDS011;47863;55.766;37.672;2024-03-17T02:53:42;13.88;;;5.28;;
61905;SDS011;47863;55.766;37.672;2024-03-17T02:56:08;17.45;;;6.75;;
61905;SDS011;47863;55.766;37.672;2024-03-17T02:58:35;9.13;;;4.25;;
61905;SDS011;47863;55.766;37.672;2024-03-17T03:01:01;9.65;;;3.80;;
61905;SDS011;47863;55.766;37.672;2024-03-17T03:03:30;7.15;;;3.45;;
61905;SDS011;47863;55.766;37.672;2024-03-17T03:05:56;15.93;;;5.95;;
61905;SDS011;47863;55.766;37.672;2024-03-17T03:08:26;10.23;;;4.88;;
61905;SDS011;47863;55.766;37.672;2024-03-17T03:10:52;11.10;;;5.10;;
61905;SDS011;47863;55.766;37.672;2024-03-17T03:13:17;9.15;;;3.88;;
61905;SDS011;47863;55.766;37.672;2024-03-17T03:15:46;15.77;;;4.93;;
61905;SDS011;47863;55.766;37.672;2024-03-17T03:18:13;13.05;;;4.70;;
61905;SDS011;47863;55.766;37.672;2024-03-17T03:20:39;16.85;;;5.63;;
61905;SDS011;47863;55.766;37.672;2024-03-17T03:23:05;13.63;;;5.25;;
61905;SDS011;47863;55.766;37.672;2024-03-17T03:25:30;16.52;;;6.40;;
61905;SDS011;47863;55.766;37.672;2024-03-17T03:27:56;18.55;;;6.75;;
61905;SDS011;47863;55.766;37.672;2024-03-17T03:30:26;19.55;;;6.30;;
61905;SDS011;47863;55.766;37.672;2024-03-17T03:32:52;14.98;;;5.22;;
61905;SDS011;47863;55.766;37.672;2024-03-17T03:35:18;12.18;;;4.97;;
61905;SDS011;47863;55.766;37.672;2024-03-17T03:37:44;8.23;;;4.30;;
61905;SDS011;47863;55.766;37.672;2024-03-17T03:40:11;12.05;;;4.85;;
61905;SDS011;47863;55.766;37.672;2024-03-17T03:42:44;19.65;;;6.78;;
61905;SDS011;47863;55.766;37.672;2024-03-17T03:45:10;10.65;;;4.68;;
61905;SDS011;47863;55.766;37.672;2024-03-17T03:47:39;12.18;;;5.13;;
61905;SDS011;47863;55.766;37.672;2024-03-17T03:50:14;14.18;;;6.03;;
61905;SDS011;47863;55.766;37.672;2024-03-17T03:52:40;12.48;;;4.78;;
61905;SDS011;47863;55.766;37.672;2024-03-17T03:55:07;9.65;;;4.82;;
61905;SDS011;47863;55.766;37.672;2024-03-17T03:57:43;8.45;;;4.43;;
61905;SDS011;47863;55.766;37.672;2024-03-17T04:00:13;12.27;;;5.55;;
61905;SDS011;47863;55.766;37.672;2024-03-17T04:02:47;21.70;;;7.20;;
61905;SDS011;47863;55.766;37.672;2024-03-17T04:05:14;12.93;;;5.05;;
61905;SDS011;47863;55.766;37.672;2024-03-17T04:07:40;10.75;;;4.55;;
61905;SDS011;47863;55.766;37.672;2024-03-17T04:10:08;11.10;;;5.45;;
61905;SDS011;47863;55.766;37.672;2024-03-17T04:12:34;17.25;;;7.65;;
61905;SDS011;47863;55.766;37.672;2024-03-17T04:14:59;13.35;;;5.05;;
61905;SDS011;47863;55.766;37.672;2024-03-17T04:17:25;14.27;;;5.43;;
61905;SDS011;47863;55.766;37.672;2024-03-17T04:19:53;10.30;;;4.88;;
61905;SDS011;47863;55.766;37.672;2024-03-17T04:22:19;21.60;;;7.88;;
61905;SDS011;47863;55.766;37.672;2024-03-17T04:24:47;10.98;;;5.28;;
61905;SDS011;47863;55.766;37.672;2024-03-17T04:27:21;20.83;;;7.43;;
61905;SDS011;47863;55.766;37.672;2024-03-17T04:29:48;15.20;;;6.47;;
61905;SDS011;47863;55.766;37.672;2024-03-17T04:32:15;11.80;;;5.35;;
61905;SDS011;47863;55.766;37.672;2024-03-17T04:34:40;15.30;;;7.07;;
61905;SDS011;47863;55.766;37.672;2024-03-17T04:37:08;21.55;;;7.82;;
61905;SDS011;47863;55.766;37.672;2024-03-17T04:39:43;33.63;;;8.82;;
61905;SDS011;47863;55.766;37.672;2024-03-17T04:42:10;15.65;;;7.75;;
61905;SDS011;47863;55.766;37.672;2024-03-17T04:44:39;25.92;;;9.10;;
61905;SDS011;47863;55.766;37.672;2024-03-17T04:47:05;17.35;;;7.53;;
61905;SDS011;47863;55.766;37.672;2024-03-17T04:49:38;13.98;;;6.18;;
61905;SDS011;47863;55.766;37.672;2024-03-17T04:52:04;13.10;;;6.10;;
61905;SDS011;47863;55.766;37.672;2024-03-17T04:54:31;15.85;;;6.63;;
61905;SDS011;47863;55.766;37.672;2024-03-17T04:56:57;17.10;;;7.25;;
61905;SDS011;47863;55.766;37.672;2024-03-17T04:59:22;16.77;;;6.97;;
61905;SDS011;47863;55.766;37.672;2024-03-17T05:01:48;22.15;;;8.32;;
61905;SDS011;47863;55.766;37.672;2024-03-17T05:04:14;20.88;;;8.10;;
61905;SDS011;47863;55.766;37.672;2024-03-17T05:06:40;18.00;;;7.85;;
61905;SDS011;47863;55.766;37.672;2024-03-17T05:09:07;10.30;;;5.28;;
61905;SDS011;47863;55.766;37.672;2024-03-17T05:11:33;14.68;;;5.65;;
61905;SDS011;47863;55.766;37.672;2024-03-17T05:14:00;15.82;;;6.30;;
61905;SDS011;47863;55.766;37.672;2024-03-17T05:16:26;21.70;;;8.48;;
61905;SDS011;47863;55.766;37.672;2024-03-17T05:18:54;18.10;;;7.32;;
61905;SDS011;47863;55.766;37.672;2024-03-17T05:21:21;12.35;;;6.10;;
61905;SDS011;47863;55.766;37.672;2024-03-17T05:23:47;11.02;;;5.63;;
61905;SDS011;47863;55.766;37.672;2024-03-17T05:26:13;14.85;;;6.95;;
61905;SDS011;47863;55.766;37.672;2024-03-17T05:28:39;26.65;;;8.98;;
61905;SDS011;47863;55.766;37.672;2024-03-17T05:31:05;15.80;;;7.07;;
61905;SDS011;47863;55.766;37.672;2024-03-17T05:33:31;19.20;;;7.70;;
61905;SDS011;47863;55.766;37.672;2024-03-17T05:35:58;20.30;;;6.80;;
61905;SDS011;47863;55.766;37.672;2024-03-17T05:38:27;19.83;;;9.73;;
61905;SDS011;47863;55.766;37.672;2024-03-17T05:40:55;19.08;;;7.60;;
61905;SDS011;47863;55.766;37.672;2024-03-17T05:43:31;16.35;;;6.80;;
61905;SDS011;47863;55.766;37.672;2024-03-17T05:46:04;14.77;;;6.53;;
61905;SDS011;47863;55.766;37.672;2024-03-17T05:48:32;21.70;;;8.40;;
61905;SDS011;47863;55.766;37.672;2024-03-17T05:50:58;13.52;;;6.13;;
61905;SDS011;47863;55.766;37.672;2024-03-17T05:53:27;16.23;;;7.22;;
61905;SDS011;47863;55.766;37.672;2024-03-17T05:55:53;13.20;;;6.68;;
61905;SDS011;47863;55.766;37.672;2024-03-17T05:58:18;16.33;;;6.45;;
61905;SDS011;47863;55.766;37.672;2024-03-17T06:00:44;16.83;;;7.15;;
61905;SDS011;47863;55.766;37.672;2024-03-17T06:03:10;25.65;;;8.85;;
61905;SDS011;47863;55.766;37.672;2024-03-17T06:05:36;15.85;;;6.80;;
61905;SDS011;47863;55.766;37.672;2024-03-17T06:08:04;17.83;;;7.05;;
61905;SDS011;47863;55.766;37.672;2024-03-17T06:10:33;16.10;;;7.22;;
61905;SDS011;47863;55.766;37.672;2024-03-17T06:12:59;18.02;;;8.32;;
61905;SDS011;47863;55.766;37.672;2024-03-17T06:15:25;16.88;;;7.13;;
61905;SDS011;47863;55.766;37.672;2024-03-17T06:17:52;20.38;;;7.88;;
61905;SDS011;47863;55.766;37.672;2024-03-17T06:20:19;17.25;;;7.88;;
61905;SDS011;47863;55.766;37.672;2024-03-17T06:22:54;14.77;;;6.30;;
61905;SDS011;47863;55.766;37.672;2024-03-17T06:25:22;24.50;;;8.70;;
61905;SDS011;47863;55.766;37.672;2024-03-17T06:27:51;16.27;;;7.47;;
61905;SDS011;47863;55.766;37.672;2024-03-17T06:30:17;18.75;;;8.75;;
61905;SDS011;47863;55.766;37.672;2024-03-17T06:32:46;19.30;;;8.25;;
61905;SDS011;47863;55.766;37.672;2024-03-17T06:35:15;19.83;;;8.00;;
61905;SDS011;47863;55.766;37.672;2024-03-17T06:37:41;12.57;;;7.25;;
61905;SDS011;47863;55.766;37.672;2024-03-17T06:40:08;25.70;;;9.20;;
61905;SDS011;47863;55.766;37.672;2024-03-17T06:42:38;13.35;;;6.68;;
61905;SDS011;47863;55.766;37.672;2024-03-17T06:45:04;12.43;;;6.50;;
61905;SDS011;47863;55.766;37.672;2024-03-17T06:47:31;14.32;;;6.05;;
61905;SDS011;47863;55.766;37.672;2024-03-17T06:49:56;14.13;;;6.60;;
61905;SDS011;47863;55.766;37.672;2024-03-17T06:52:22;27.02;;;9.02;;
61905;SDS011;47863;55.766;37.672;2024-03-17T06:54:47;18.58;;;7.22;;
61905;SDS011;47863;55.766;37.672;2024-03-17T06:57:16;14.43;;;7.22;;
61905;SDS011;47863;55.766;37.672;2024-03-17T06:59:42;17.25;;;6.82;;
61905;SDS011;47863;55.766;37.672;2024-03-17T07:02:07;12.95;;;6.88;;
61905;SDS011;47863;55.766;37.672;2024-03-17T07:04:37;11.70;;;5.82;;
61905;SDS011;47863;55.766;37.672;2024-03-17T07:07:03;20.27;;;7.40;;
61905;SDS011;47863;55.766;37.672;2024-03-17T07:09:29;13.45;;;7.22;;
61905;SDS011;47863;55.766;37.672;2024-03-17T07:11:54;29.83;;;10.27;;
61905;SDS011;47863;55.766;37.672;2024-03-17T07:14:20;14.68;;;7.00;;
61905;SDS011;47863;55.766;37.672;2024-03-17T07:16:45;12.30;;;7.03;;
61905;SDS011;47863;55.766;37.672;2024-03-17T07:19:11;25.08;;;9.50;;
61905;SDS011;47863;55.766;37.672;2024-03-17T07:21:36;19.48;;;8.15;;
61905;SDS011;47863;55.766;37.672;2024-03-17T07:24:02;20.55;;;8.85;;
61905;SDS011;47863;55.766;37.672;2024-03-17T07:26:30;24.35;;;8.55;;
61905;SDS011;47863;55.766;37.672;2024-03-17T07:28:56;15.52;;;6.93;;
61905;SDS011;47863;55.766;37.672;2024-03-17T07:31:21;21.25;;;7.78;;
61905;SDS011;47863;55.766;37.672;2024-03-17T07:33:47;15.57;;;6.40;;
61905;SDS011;47863;55.766;37.672;2024-03-17T07:36:13;22.27;;;9.40;;
61905;SDS011;47863;55.766;37.672;2024-03-17T07:38:39;16.02;;;7.68;;
61905;SDS011;47863;55.766;37.672;2024-03-17T07:41:06;21.30;;;7.93;;
61905;SDS011;47863;55.766;37.672;2024-03-17T07:43:36;19.85;;;8.20;;
61905;SDS011;47863;55.766;37.672;2024-03-17T07:46:06;22.08;;;8.35;;
61905;SDS011;47863;55.766;37.672;2024-03-17T07:48:35;21.52;;;8.70;;
61905;SDS011;47863;55.766;37.672;2024-03-17T07:51:03;18.27;;;7.97;;
61905;SDS011;47863;55.766;37.672;2024-03-17T07:53:33;17.50;;;7.63;;
61905;SDS011;47863;55.766;37.672;2024-03-17T07:56:00;18.70;;;7.47;;
61905;SDS011;47863;55.766;37.672;2024-03-17T07:58:26;20.50;;;7.57;;
61905;SDS011;47863;55.766;37.672;2024-03-17T08:00:53;22.10;;;8.38;;
61905;SDS011;47863;55.766;37.672;2024-03-17T08:03:34;16.58;;;6.82;;
61905;SDS011;47863;55.766;37.672;2024-03-17T08:06:02;21.90;;;9.18;;
61905;SDS011;47863;55.766;37.672;2024-03-17T08:08:31;27.52;;;9.68;;
61905;SDS011;47863;55.766;37.672;2024-03-17T08:10:57;21.60;;;8.50;;
61905;SDS011;47863;55.766;37.672;2024-03-17T08:13:24;24.27;;;9.50;;
61905;SDS011;47863;55.766;37.672;2024-03-17T08:16:00;23.27;;;8.82;;
61905;SDS011;47863;55.766;37.672;2024-03-17T08:18:27;17.80;;;7.70;;
61905;SDS011;47863;55.766;37.672;2024-03-17T08:20:53;24.63;;;11.00;;
61905;SDS011;47863;55.766;37.672;2024-03-17T08:23:20;19.80;;;9.45;;
61905;SDS011;47863;55.766;37.672;2024-03-17T08:25:56;19.73;;;8.25;;
61905;SDS011;47863;55.766;37.672;2024-03-17T08:28:23;16.95;;;8.38;;
61905;SDS011;47863;55.766;37.672;2024-03-17T08:30:51;26.48;;;9.05;;
61905;SDS011;47863;55.766;37.672;2024-03-17T08:33:17;21.05;;;9.20;;
61905;SDS011;47863;55.766;37.672;2024-03-17T08:35:51;27.80;;;9.50;;
61905;SDS011;47863;55.766;37.672;2024-03-17T08:38:21;21.90;;;8.43;;
61905;SDS011;47863;55.766;37.672;2024-03-17T08:40:49;26.38;;;10.20;;
61905;SDS011;47863;55.766;37.672;2024-03-17T08:43:15;20.48;;;7.65;;
61905;SDS011;47863;55.766;37.672;2024-03-17T08:45:41;23.55;;;9.77;;
61905;SDS011;47863;55.766;37.672;2024-03-17T08:48:07;24.33;;;9.52;;
61905;SDS011;47863;55.766;37.672;2024-03-17T08:50:32;25.70;;;10.45;;
61905;SDS011;47863;55.766;37.672;2024-03-17T08:53:01;24.58;;;10.02;;
61905;SDS011;47863;55.766;37.672;2024-03-17T08:55:27;24.35;;;11.20;;
61905;SDS011;47863;55.766;37.672;2024-03-17T08:57:52;24.48;;;9.50;;
61905;SDS011;47863;55.766;37.672;2024-03-17T09:00:18;21.85;;;9.43;;
61905;SDS011;47863;55.766;37.672;2024-03-17T09:02:44;29.45;;;11.15;;
61905;SDS011;47863;55.766;37.672;2024-03-17T09:05:09;31.60;;;10.82;;
61905;SDS011;47863;55.766;37.672;2024-03-17T09:07:37;24.02;;;10.20;;
61905;SDS011;47863;55.766;37.672;2024-03-17T09:10:03;32.25;;;11.95;;
61905;SDS011;47863;55.766;37.672;2024-03-17T09:12:29;26.25;;;10.68;;
61905;SDS011;47863;55.766;37.672;2024-03-17T09:14:54;17.27;;;7.78;;
61905;SDS011;47863;55.766;37.672;2024-03-17T09:17:20;19.85;;;9.25;;
61905;SDS011;47863;55.766;37.672;2024-03-17T09:19:46;18.17;;;7.72;;
61905;SDS011;47863;55.766;37.672;2024-03-17T09:22:13;32.58;;;10.73;;
61905;SDS011;47863;55.766;37.672;2024-03-17T09:24:38;22.90;;;9.82;;
61905;SDS011;47863;55.766;37.672;2024-03-17T09:27:05;25.23;;;9.55;;
61905;SDS011;47863;55.766;37.672;2024-03-17T09:29:31;31.65;;;10.88;;
61905;SDS011;47863;55.766;37.672;2024-03-17T09:31:58;23.10;;;9.27;;
61905;SDS011;47863;55.766;37.672;2024-03-17T09:34:23;27.25;;;10.02;;
61905;SDS011;47863;55.766;37.672;2024-03-17T09:36:49;23.58;;;9.38;;
61905;SDS011;47863;55.766;37.672;2024-03-17T09:39:15;25.20;;;10.57;;
61905;SDS011;47863;55.766;37.672;2024-03-17T09:41:41;26.42;;;10.10;;
61905;SDS011;47863;55.766;37.672;2024-03-17T09:44:09;19.85;;;9.38;;
61905;SDS011;47863;55.766;37.672;2024-03-17T09:46:38;30.95;;;10.80;;
61905;SDS011;47863;55.766;37.672;2024-03-17T09:49:04;31.13;;;10.60;;
61905;SDS011;47863;55.766;37.672;2024-03-17T09:51:33;19.38;;;8.63;;
61905;SDS011;47863;55.766;37.672;2024-03-17T09:54:00;15.57;;;7.35;;
61905;SDS011;47863;55.766;37.672;2024-03-17T09:56:25;28.63;;;10.05;;
61905;SDS011;47863;55.766;37.672;2024-03-17T09:58:51;16.10;;;7.18;;
61905;SDS011;47863;55.766;37.672;2024-03-17T10:01:17;25.08;;;9.50;;
61905;SDS011;47863;55.766;37.672;2024-03-17T10:06:24;20.80;;;8.88;;
61905;SDS011;47863;55.766;37.672;2024-03-17T10:08:53;18.70;;;8.40;;
61905;SDS011;47863;55.766;37.672;2024-03-17T10:11:20;23.13;;;8.75;;
61905;SDS011;47863;55.766;37.672;2024-03-17T10:14:02;15.13;;;7.72;;
61905;SDS011;47863;55.766;37.672;2024-03-17T10:16:29;17.65;;;8.10;;
61905;SDS011;47863;55.766;37.672;2024-03-17T10:19:06;15.82;;;8.05;;
61905;SDS011;47863;55.766;37.672;2024-03-17T10:21:35;21.90;;;8.25;;
61905;SDS011;47863;55.766;37.672;2024-03-17T10:24:05;27.77;;;9.25;;
61905;SDS011;47863;55.766;37.672;2024-03-17T10:26:48;19.80;;;9.23;;
61905;SDS011;47863;55.766;37.672;2024-03-17T10:29:29;19.20;;;7.75;;
61905;SDS011;47863;55.766;37.672;2024-03-17T10:31:56;18.35;;;7.25;;
61905;SDS011;47863;55.766;37.672;2024-03-17T10:34:24;32.92;;;9.57;;
61905;SDS011;47863;55.766;37.672;2024-03-17T10:36:52;23.13;;;9.07;;
61905;SDS011;47863;55.766;37.672;2024-03-17T10:39:49;17.92;;;6.88;;
61905;SDS011;47863;55.766;37.672;2024-03-17T10:42:23;18.83;;;8.02;;
61905;SDS011;47863;55.766;37.672;2024-03-17T10:44:51;20.10;;;7.53;;
61905;SDS011;47863;55.766;37.672;2024-03-17T10:47:23;16.25;;;6.80;;
61905;SDS011;47863;55.766;37.672;2024-03-17T10:49:51;23.42;;;8.32;;
61905;SDS011;47863;55.766;37.672;2024-03-17T10:52:17;25.35;;;9.38;;
61905;SDS011;47863;55.766;37.672;2024-03-17T10:54:46;24.15;;;7.13;;
61905;SDS011;47863;55.766;37.672;2024-03-17T11:00:03;17.55;;;6.65;;
61905;SDS011;47863;55.766;37.672;2024-03-17T11:02:32;18.55;;;6.95;;
61905;SDS011;47863;55.766;37.672;2024-03-17T11:05:02;18.15;;;6.65;;
61905;SDS011;47863;55.766;37.672;2024-03-17T11:07:31;24.38;;;7.43;;
61905;SDS011;47863;55.766;37.672;2024-03-17T11:10:02;14.77;;;6.18;;
61905;SDS011;47863;55.766;37.672;2024-03-17T11:12:43;17.75;;;6.22;;
61905;SDS011;47863;55.766;37.672;2024-03-17T11:17:47;17.65;;;6.28;;
61905;SDS011;47863;55.766;37.672;2024-03-17T11:20:29;21.70;;;6.05;;
61905;SDS011;47863;55.766;37.672;2024-03-17T11:22:55;19.42;;;5.00;;
61905;SDS011;47863;55.766;37.672;2024-03-17T11:27:51;22.92;;;5.85;;
61905;SDS011;47863;55.766;37.672;2024-03-17T11:39:07;16.08;;;5.18;;
61905;SDS011;47863;55.766;37.672;2024-03-17T11:41:47;13.10;;;4.30;;
61905;SDS011;47863;55.766;37.672;2024-03-17T11:46:46;15.00;;;5.03;;
61905;SDS011;47863;55.766;37.672;2024-03-17T11:52:00;15.27;;;4.85;;
61905;SDS011;47863;55.766;37.672;2024-03-17T11:54:32;9.43;;;4.38;;
61905;SDS011;47863;55.766;37.672;2024-03-17T11:59:28;8.05;;;3.53;;
61905;SDS011;47863;55.766;37.672;2024-03-17T12:01:55;14.25;;;4.40;;
61905;SDS011;47863;55.766;37.672;2024-03-17T12:04:21;17.85;;;6.57;;
61905;SDS011;47863;55.766;37.672;2024-03-17T12:06:52;10.20;;;4.97;;
61905;SDS011;47863;55.766;37.672;2024-03-17T12:09:24;11.13;;;3.80;;
61905;SDS011;47863;55.766;37.672;2024-03-17T12:11:58;14.25;;;5.35;;
61905;SDS011;47863;55.766;37.672;2024-03-17T12:15:15;14.00;;;5.50;;
61905;SDS011;47863;55.766;37.672;2024-03-17T12:17:30;17.75;;;6.13;;
61905;SDS011;47863;55.766;37.672;2024-03-17T12:20:15;15.63;;;5.88;;
61905;SDS011;47863;55.766;37.672;2024-03-17T12:22:44;10.38;;;4.78;;
61905;SDS011;47863;55.766;37.672;2024-03-17T12:25:40;18.45;;;5.18;;
61905;SDS011;47863;55.766;37.672;2024-03-17T12:28:15;17.80;;;6.22;;
61905;SDS011;47863;55.766;37.672;2024-03-17T12:30:42;8.35;;;4.18;;
61905;SDS011;47863;55.766;37.672;2024-03-17T12:33:12;14.15;;;5.13;;
61905;SDS011;47863;55.766;37.672;2024-03-17T12:35:59;18.35;;;5.05;;
61905;SDS011;47863;55.766;37.672;2024-03-17T12:38:32;16.45;;;5.15;;
61905;SDS011;47863;55.766;37.672;2024-03-17T12:43:50;15.20;;;5.15;;
61905;SDS011;47863;55.766;37.672;2024-03-17T12:46:17;23.42;;;6.10;;
61905;SDS011;47863;55.766;37.672;2024-03-17T12:48:43;13.02;;;5.95;;
61905;SDS011;47863;55.766;37.672;2024-03-17T12:51:13;21.08;;;5.43;;
61905;SDS011;47863;55.766;37.672;2024-03-17T12:53:39;10.63;;;5.03;;
61905;SDS011;47863;55.766;37.672;2024-03-17T12:56:05;18.25;;;6.57;;
61905;SDS011;47863;55.766;37.672;2024-03-17T12:58:49;17.45;;;4.97;;
61905;SDS011;47863;55.766;37.672;2024-03-17T13:01:33;14.23;;;5.55;;
61905;SDS011;47863;55.766;37.672;2024-03-17T13:04:06;20.83;;;5.35;;
61905;SDS011;47863;55.766;37.672;2024-03-17T13:06:33;11.73;;;5.72;;
61905;SDS011;47863;55.766;37.672;2024-03-17T13:08:58;12.65;;;4.75;;
61905;SDS011;47863;55.766;37.672;2024-03-17T13:11:24;19.75;;;5.57;;
61905;SDS011;47863;55.766;37.672;2024-03-17T13:13:50;14.95;;;4.35;;
61905;SDS011;47863;55.766;37.672;2024-03-17T13:16:15;21.92;;;5.18;;
61905;SDS011;47863;55.766;37.672;2024-03-17T13:18:41;14.70;;;5.97;;
61905;SDS011;47863;55.766;37.672;2024-03-17T13:21:07;13.43;;;4.85;;
61905;SDS011;47863;55.766;37.672;2024-03-17T13:23:33;16.70;;;4.93;;
61905;SDS011;47863;55.766;37.672;2024-03-17T13:25:58;24.58;;;5.60;;
61905;SDS011;47863;55.766;37.672;2024-03-17T13:28:24;18.52;;;6.03;;
61905;SDS011;47863;55.766;37.672;2024-03-17T13:30:49;17.17;;;5.18;;
61905;SDS011;47863;55.766;37.672;2024-03-17T13:33:15;17.45;;;5.60;;
61905;SDS011;47863;55.766;37.672;2024-03-17T13:35:41;23.38;;;5.75;;
61905;SDS011;47863;55.766;37.672;2024-03-17T13:38:08;17.20;;;5.13;;
61905;SDS011;47863;55.766;37.672;2024-03-17T13:40:36;20.17;;;6.38;;
61905;SDS011;47863;55.766;37.672;2024-03-17T13:43:04;25.83;;;5.78;;
61905;SDS011;47863;55.766;37.672;2024-03-17T13:45:48;24.63;;;5.55;;
61905;SDS011;47863;55.766;37.672;2024-03-17T13:48:14;15.00;;;6.35;;
61905;SDS011;47863;55.766;37.672;2024-03-17T13:50:40;14.43;;;5.18;;
61905;SDS011;47863;55.766;37.672;2024-03-17T13:53:10;24.35;;;5.90;;
61905;SDS011;47863;55.766;37.672;2024-03-17T13:55:36;14.13;;;4.82;;
61905;SDS011;47863;55.766;37.672;2024-03-17T13:58:03;14.32;;;5.13;;
61905;SDS011;47863;55.766;37.672;2024-03-17T14:00:30;15.38;;;5.40;;
61905;SDS011;47863;55.766;37.672;2024-03-17T14:02:57;13.68;;;4.68;;
61905;SDS011;47863;55.766;37.672;2024-03-17T14:05:24;11.45;;;4.05;;
61905;SDS011;47863;55.766;37.672;2024-03-17T14:07:51;11.13;;;3.90;;
61905;SDS011;47863;55.766;37.672;2024-03-17T14:10:19;18.45;;;4.57;;
61905;SDS011;47863;55.766;37.672;2024-03-17T14:12:45;13.95;;;5.03;;
61905;SDS011;47863;55.766;37.672;2024-03-17T14:15:12;17.50;;;4.53;;
61905;SDS011;47863;55.766;37.672;2024-03-17T14:17:42;29.58;;;7.03;;
61905;SDS011;47863;55.766;37.672;2024-03-17T14:20:12;11.82;;;4.93;;
61905;SDS011;47863;55.766;37.672;2024-03-17T14:22:42;16.85;;;5.13;;
61905;SDS011;47863;55.766;37.672;2024-03-17T14:25:09;15.80;;;5.32;;
61905;SDS011;47863;55.766;37.672;2024-03-17T14:27:37;10.90;;;4.72;;
61905;SDS011;47863;55.766;37.672;2024-03-17T14:30:04;13.00;;;4.63;;
61905;SDS011;47863;55.766;37.672;2024-03-17T14:32:32;16.60;;;5.03;;
61905;SDS011;47863;55.766;37.672;2024-03-17T14:34:58;18.98;;;5.72;;
61905;SDS011;47863;55.766;37.672;2024-03-17T14:37:24;19.33;;;5.40;;
61905;SDS011;47863;55.766;37.672;2024-03-17T14:39:51;13.40;;;4.95;;
61905;SDS011;47863;55.766;37.672;2024-03-17T14:42:18;14.48;;;4.40;;
61905;SDS011;47863;55.766;37.672;2024-03-17T14:44:44;17.67;;;5.07;;
61905;SDS011;47863;55.766;37.672;2024-03-17T14:47:10;22.85;;;5.15;;
61905;SDS011;47863;55.766;37.672;2024-03-17T14:49:36;19.70;;;4.90;;
61905;SDS011;47863;55.766;37.672;2024-03-17T14:52:01;22.08;;;5.60;;
61905;SDS011;47863;55.766;37.672;2024-03-17T14:54:27;21.45;;;5.50;;
61905;SDS011;47863;55.766;37.672;2024-03-17T14:56:53;14.65;;;4.72;;
61905;SDS011;47863;55.766;37.672;2024-03-17T14:59:19;15.43;;;5.03;;